createdAt,value
2022-09-11T00:02:25.209Z,17.20
2022-09-11T00:05:00.944Z,17.20
2022-09-11T00:07:31.043Z,17.30
2022-09-11T00:10:00.020Z,17.30
2022-09-11T00:12:31.061Z,17.20
2022-09-11T00:15:00.248Z,17.10
2022-09-11T00:17:31.262Z,17.10
2022-09-11T00:20:00.955Z,17.00
2022-09-11T00:22:54.513Z,17.00
2022-09-11T00:25:22.973Z,16.90
2022-09-11T00:27:53.987Z,16.90
2022-09-11T00:30:22.829Z,16.90
2022-09-11T00:32:52.240Z,17.00
2022-09-11T00:35:20.688Z,17.00
2022-09-11T00:37:49.410Z,17.00
2022-09-11T00:40:19.222Z,17.00
2022-09-11T00:42:55.644Z,17.00
2022-09-11T00:45:27.594Z,17.10
2022-09-11T00:48:00.929Z,17.10
2022-09-11T00:50:34.143Z,17.10
2022-09-11T00:53:31.836Z,17.10
2022-09-11T00:56:04.916Z,17.20
2022-09-11T00:58:40.711Z,17.20
2022-09-11T01:01:09.299Z,17.20
2022-09-11T01:03:38.351Z,17.10
2022-09-11T01:06:08.143Z,17.10
2022-09-11T01:08:38.526Z,17.10
2022-09-11T01:11:39.557Z,17.10
2022-09-11T01:14:26.394Z,17.00
2022-09-11T01:17:08.273Z,17.00
2022-09-11T01:20:17.290Z,17.00
2022-09-11T01:23:44.005Z,16.90
2022-09-11T01:26:55.607Z,16.80
2022-09-11T01:29:34.595Z,16.80
2022-09-11T01:32:11.836Z,16.80
2022-09-11T01:34:54.733Z,16.80
2022-09-11T01:37:31.250Z,16.80
2022-09-11T01:40:10.895Z,16.80
2022-09-11T01:42:43.307Z,16.80
2022-09-11T01:45:17.171Z,16.80
2022-09-11T01:47:48.166Z,16.80
2022-09-11T01:50:19.772Z,16.80
2022-09-11T01:52:53.289Z,16.70
2022-09-11T01:55:31.295Z,16.70
2022-09-11T01:58:07.344Z,16.70
2022-09-11T02:00:39.544Z,16.70
2022-09-11T02:03:17.007Z,16.80
2022-09-11T02:05:53.176Z,16.80
2022-09-11T02:08:29.405Z,16.80
2022-09-11T02:11:13.827Z,16.80
2022-09-11T02:13:54.774Z,16.80
2022-09-11T02:16:41.100Z,16.80
2022-09-11T02:19:13.485Z,16.80
2022-09-11T02:21:42.156Z,16.80
2022-09-11T02:24:11.894Z,16.80
2022-09-11T02:26:46.004Z,16.80
2022-09-11T02:29:15.472Z,16.80
2022-09-11T02:31:46.640Z,16.80
2022-09-11T02:34:17.959Z,16.80
2022-09-11T02:37:14.732Z,16.80
2022-09-11T02:40:35.350Z,16.70
2022-09-11T02:43:42.576Z,16.70
2022-09-11T02:46:34.929Z,16.70
2022-09-11T02:49:12.565Z,16.60
2022-09-11T02:51:55.957Z,16.60
2022-09-11T02:54:37.843Z,16.60
2022-09-11T02:57:14.965Z,16.50
2022-09-11T02:59:51.416Z,16.50
2022-09-11T03:02:21.201Z,16.50
2022-09-11T03:04:51.153Z,16.50
2022-09-11T03:07:19.642Z,16.40
2022-09-11T03:09:48.076Z,16.40
2022-09-11T03:12:16.574Z,16.30
2022-09-11T03:14:45.170Z,16.30
2022-09-11T03:17:13.753Z,16.20
2022-09-11T03:20:09.834Z,16.20
2022-09-11T03:22:39.795Z,16.10
2022-09-11T03:25:09.613Z,16.10
2022-09-11T03:27:39.595Z,16.00
2022-09-11T03:30:09.898Z,16.00
2022-09-11T03:32:38.359Z,15.90
2022-09-11T03:35:09.364Z,15.90
2022-09-11T03:37:53.193Z,15.90
2022-09-11T03:40:21.627Z,15.90
2022-09-11T03:43:03.819Z,15.90
2022-09-11T03:45:32.408Z,15.80
2022-09-11T03:48:01.253Z,15.70
2022-09-11T03:50:31.186Z,15.60
2022-09-11T03:53:22.403Z,15.60
2022-09-11T03:55:51.053Z,15.60
2022-09-11T03:58:20.203Z,15.50
2022-09-11T04:00:49.318Z,15.40
2022-09-11T04:03:19.215Z,15.40
2022-09-11T04:06:00.726Z,15.30
2022-09-11T04:08:33.532Z,15.30
2022-09-11T04:11:05.175Z,15.40
2022-09-11T04:13:36.036Z,15.40
2022-09-11T04:16:08.209Z,15.30
2022-09-11T04:18:39.096Z,15.30
2022-09-11T04:21:11.510Z,15.30
2022-09-11T04:23:41.593Z,15.30
2022-09-11T04:26:16.390Z,15.30
2022-09-11T04:28:56.176Z,15.20
2022-09-11T04:31:26.318Z,15.20
2022-09-11T04:33:57.918Z,15.20
2022-09-11T04:36:30.019Z,15.30
2022-09-11T04:39:00.427Z,15.40
2022-09-11T04:41:29.852Z,15.40
2022-09-11T04:44:04.757Z,15.50
2022-09-11T04:46:34.678Z,15.60
2022-09-11T04:49:03.326Z,15.70
2022-09-11T04:51:36.554Z,15.80
2022-09-11T04:54:07.123Z,15.90
2022-09-11T04:56:38.959Z,16.00
2022-09-11T04:59:13.468Z,16.20
2022-09-11T05:01:41.954Z,16.20
2022-09-11T05:04:12.786Z,16.40
2022-09-11T05:07:08.072Z,16.50
2022-09-11T05:09:36.625Z,16.70
2022-09-11T05:12:06.941Z,16.80
2022-09-11T05:14:35.962Z,16.90
2022-09-11T05:17:04.548Z,17.00
2022-09-11T05:19:33.010Z,17.10
2022-09-11T05:22:01.494Z,17.20
2022-09-11T05:24:31.347Z,17.30
2022-09-11T05:27:00.122Z,17.40
2022-09-11T05:29:32.513Z,17.50
2022-09-11T05:32:01.774Z,17.60
2022-09-11T05:34:30.719Z,17.70
2022-09-11T05:36:59.767Z,17.70
2022-09-11T05:39:28.199Z,17.80
2022-09-11T05:42:29.521Z,17.90
2022-09-11T05:44:58.043Z,18.10
2022-09-11T05:47:26.485Z,18.20
2022-09-11T05:49:54.961Z,18.40
2022-09-11T05:52:24.891Z,18.60
2022-09-11T05:55:18.156Z,18.70
2022-09-11T05:57:48.030Z,18.80
2022-09-11T06:00:17.019Z,19.00
2022-09-11T06:03:00.533Z,19.10
2022-09-11T06:05:29.151Z,19.20
2022-09-11T06:07:58.117Z,19.20
2022-09-11T06:10:26.644Z,19.30
2022-09-11T06:12:56.495Z,19.30
2022-09-11T06:15:45.556Z,19.30
2022-09-11T06:18:14.207Z,19.30
2022-09-11T06:20:42.892Z,19.30
2022-09-11T06:23:12.721Z,19.40
2022-09-11T06:25:41.172Z,19.50
2022-09-11T06:28:11.560Z,19.60
2022-09-11T06:30:41.346Z,19.80
2022-09-11T06:33:10.371Z,20.00
2022-09-11T06:35:38.830Z,20.00
2022-09-11T06:38:07.284Z,20.10
2022-09-11T06:40:38.311Z,20.20
2022-09-11T06:43:06.805Z,20.30
2022-09-11T06:45:54.912Z,20.40
2022-09-11T06:48:23.626Z,20.50
2022-09-11T06:50:52.025Z,20.60
2022-09-11T06:53:20.639Z,20.80
2022-09-11T06:55:49.081Z,20.90
2022-09-11T06:58:17.554Z,21.10
2022-09-11T07:00:46.048Z,21.30
2022-09-11T07:03:16.023Z,21.40
2022-09-11T07:05:48.173Z,21.50
2022-09-11T07:08:16.692Z,21.60
2022-09-11T07:10:45.187Z,21.70
2022-09-11T07:13:13.919Z,21.80
2022-09-11T07:15:42.555Z,21.80
2022-09-11T07:18:11.524Z,21.70
2022-09-11T07:20:42.433Z,21.50
2022-09-11T07:23:10.897Z,21.50
2022-09-11T07:25:40.416Z,21.70
2022-09-11T07:28:08.899Z,21.80
2022-09-11T07:30:37.413Z,21.70
2022-09-11T07:33:05.956Z,21.70
2022-09-11T07:35:38.160Z,21.60
2022-09-11T07:38:07.940Z,21.60
2022-09-11T07:40:38.105Z,21.70
2022-09-11T07:43:06.516Z,21.70
2022-09-11T07:45:35.097Z,21.90
2022-09-11T07:48:03.920Z,22.20
2022-09-11T07:50:32.379Z,22.50
2022-09-11T07:53:00.879Z,22.70
2022-09-11T07:55:31.053Z,22.90
2022-09-11T07:57:59.476Z,23.10
2022-09-11T08:00:27.923Z,23.20
2022-09-11T08:02:56.807Z,23.20
2022-09-11T08:05:25.323Z,23.30
2022-09-11T08:07:53.774Z,23.30
2022-09-11T08:10:27.627Z,23.40
2022-09-11T08:12:59.940Z,23.60
2022-09-11T08:15:28.741Z,23.80
2022-09-11T08:17:57.155Z,24.10
2022-09-11T08:20:25.607Z,24.30
2022-09-11T08:22:54.616Z,24.40
2022-09-11T08:25:48.580Z,24.50
2022-09-11T08:28:24.342Z,24.40
2022-09-11T08:30:58.899Z,24.50
2022-09-11T08:33:27.489Z,24.40
2022-09-11T08:36:21.626Z,24.30
2022-09-11T08:38:51.584Z,24.20
2022-09-11T08:41:41.090Z,24.10
2022-09-11T08:44:23.099Z,24.10
2022-09-11T08:46:57.536Z,24.10
2022-09-11T08:49:29.399Z,24.30
2022-09-11T08:52:02.885Z,24.40
2022-09-11T08:54:34.973Z,24.50
2022-09-11T08:57:19.116Z,24.80
2022-09-11T09:00:08.796Z,24.80
2022-09-11T09:03:17.185Z,24.70
2022-09-11T09:05:54.905Z,24.70
2022-09-11T09:08:50.584Z,24.60
2022-09-11T09:11:32.899Z,24.60
2022-09-11T09:14:29.668Z,24.80
2022-09-11T09:17:05.308Z,24.80
2022-09-11T09:19:40.982Z,24.80
2022-09-11T09:22:19.086Z,24.80
2022-09-11T09:24:51.242Z,24.90
2022-09-11T09:27:30.382Z,25.00
2022-09-11T09:30:03.514Z,25.00
2022-09-11T09:32:41.222Z,25.10
2022-09-11T09:35:20.408Z,25.20
2022-09-11T09:37:48.856Z,25.20
2022-09-11T09:40:19.642Z,25.10
2022-09-11T09:43:35.139Z,25.10
2022-09-11T09:46:20.915Z,25.20
2022-09-11T09:48:52.289Z,25.40
2022-09-11T09:51:20.790Z,25.60
2022-09-11T09:53:54.653Z,25.60
2022-09-11T09:56:24.863Z,25.70
2022-09-11T09:59:02.566Z,25.80
2022-09-11T10:01:51.902Z,25.80
2022-09-11T10:04:26.084Z,25.60
2022-09-11T10:07:07.891Z,25.50
2022-09-11T10:09:36.734Z,25.40
2022-09-11T10:12:08.983Z,25.60
2022-09-11T10:14:53.151Z,25.60
2022-09-11T10:17:33.352Z,25.70
2022-09-11T10:20:25.932Z,26.00
2022-09-11T10:22:56.528Z,25.80
2022-09-11T10:25:27.513Z,25.70
2022-09-11T10:28:05.851Z,25.60
2022-09-11T10:30:39.077Z,25.50
2022-09-11T10:33:21.856Z,25.60
2022-09-11T10:35:57.047Z,25.60
2022-09-11T10:38:32.206Z,25.80
2022-09-11T10:41:10.174Z,25.90
2022-09-11T10:43:47.661Z,25.80
2022-09-11T10:46:39.626Z,25.70
2022-09-11T10:49:20.475Z,25.60
2022-09-11T10:52:23.261Z,25.50
2022-09-11T10:55:03.307Z,25.40
2022-09-11T10:57:42.623Z,25.30
2022-09-11T11:00:20.202Z,25.50
2022-09-11T11:02:54.508Z,25.50
2022-09-11T11:05:37.187Z,25.50
2022-09-11T11:08:42.499Z,25.60
2022-09-11T11:11:35.528Z,25.70
2022-09-11T11:14:54.710Z,25.90
2022-09-11T11:17:37.820Z,26.10
2022-09-11T11:20:31.369Z,26.30
2022-09-11T11:23:36.019Z,26.30
2022-09-11T11:26:27.675Z,26.00
2022-09-11T11:29:38.066Z,26.00
2022-09-11T11:32:30.425Z,26.20
2022-09-11T11:35:21.809Z,26.20
2022-09-11T11:37:54.510Z,26.00
2022-09-11T11:40:32.889Z,25.70
2022-09-11T11:43:08.783Z,25.70
2022-09-11T11:45:44.822Z,25.90
2022-09-11T11:48:23.914Z,25.90
2022-09-11T11:50:55.695Z,25.80
2022-09-11T11:53:31.374Z,25.60
2022-09-11T11:56:15.795Z,25.60
2022-09-11T11:58:52.781Z,25.80
2022-09-11T12:01:29.644Z,25.80
2022-09-11T12:04:11.448Z,25.70
2022-09-11T12:06:39.908Z,25.70
2022-09-11T12:09:11.009Z,25.70
2022-09-11T12:11:41.061Z,25.90
2022-09-11T12:14:28.597Z,26.00
2022-09-11T12:16:58.301Z,26.10
2022-09-11T12:19:26.886Z,26.20
2022-09-11T12:22:34.712Z,26.30
2022-09-11T12:25:03.422Z,26.40
2022-09-11T12:28:11.580Z,26.20
2022-09-11T12:31:03.361Z,26.40
2022-09-11T12:33:57.821Z,26.60
2022-09-11T12:36:38.584Z,26.70
2022-09-11T12:39:37.178Z,26.80
2022-09-11T12:43:00.961Z,26.40
2022-09-11T12:45:36.889Z,26.20
2022-09-11T12:48:12.498Z,26.40
2022-09-11T12:50:50.581Z,26.50
2022-09-11T12:53:27.353Z,26.60
2022-09-11T12:56:01.070Z,26.60
2022-09-11T12:59:00.691Z,26.50
2022-09-11T13:01:35.027Z,26.30
2022-09-11T13:04:17.128Z,26.20
2022-09-11T13:06:49.965Z,26.20
2022-09-11T13:09:23.846Z,26.40
2022-09-11T13:12:51.313Z,26.50
2022-09-11T13:15:42.838Z,26.60
2022-09-11T13:18:35.525Z,26.60
2022-09-11T13:21:16.364Z,26.50
2022-09-11T13:23:45.992Z,26.50
2022-09-11T13:26:26.844Z,26.40
2022-09-11T13:29:00.160Z,26.40
2022-09-11T13:31:35.843Z,26.50
2022-09-11T13:34:08.744Z,26.50
2022-09-11T13:36:38.456Z,26.40
2022-09-11T13:39:10.061Z,26.30
2022-09-11T13:41:43.774Z,26.20
2022-09-11T13:44:36.854Z,26.30
2022-09-11T13:47:17.666Z,26.40
2022-09-11T13:49:49.193Z,26.50
2022-09-11T13:52:22.686Z,26.60
2022-09-11T13:54:55.106Z,26.60
2022-09-11T13:57:25.789Z,26.60
2022-09-11T13:59:56.966Z,26.60
2022-09-11T14:02:50.561Z,26.50
2022-09-11T14:05:23.141Z,26.50
2022-09-11T14:08:01.539Z,26.40
2022-09-11T14:10:47.069Z,26.40
2022-09-11T14:13:23.173Z,26.10
2022-09-11T14:15:56.499Z,25.90
2022-09-11T14:18:34.863Z,25.70
2022-09-11T14:21:07.756Z,25.50
2022-09-11T14:23:48.168Z,25.20
2022-09-11T14:26:20.356Z,25.00
2022-09-11T14:29:00.797Z,24.70
2022-09-11T14:31:35.055Z,24.60
2022-09-11T14:34:17.937Z,24.50
2022-09-11T14:36:52.825Z,24.60
2022-09-11T14:39:37.629Z,24.40
2022-09-11T14:42:09.530Z,24.30
2022-09-11T14:44:40.828Z,24.20
2022-09-11T14:47:17.230Z,24.20
2022-09-11T14:49:47.396Z,24.10
2022-09-11T14:52:19.444Z,24.10
2022-09-11T14:54:48.881Z,24.00
2022-09-11T14:57:21.110Z,23.90
2022-09-11T14:59:49.946Z,23.80
2022-09-11T15:02:21.316Z,23.60
2022-09-11T15:04:53.494Z,23.50
2022-09-11T15:07:23.465Z,23.40
2022-09-11T15:09:53.077Z,23.30
2022-09-11T15:12:22.580Z,23.20
2022-09-11T15:14:59.349Z,23.20
2022-09-11T15:17:31.504Z,23.10
2022-09-11T15:20:01.724Z,23.00
2022-09-11T15:22:31.341Z,23.00
2022-09-11T15:24:59.988Z,22.90
2022-09-11T15:27:28.707Z,22.80
2022-09-11T15:30:07.942Z,22.70
2022-09-11T15:32:36.389Z,22.70
2022-09-11T15:35:08.171Z,22.60
2022-09-11T15:37:36.666Z,22.50
2022-09-11T15:40:06.226Z,22.50
2022-09-11T15:42:39.526Z,22.40
2022-09-11T15:45:11.091Z,22.40
2022-09-11T15:47:39.777Z,22.30
2022-09-11T15:50:10.496Z,22.30
2022-09-11T15:52:40.882Z,22.20
2022-09-11T15:55:10.736Z,22.10
2022-09-11T15:57:39.503Z,22.00
2022-09-11T16:00:36.363Z,22.00
2022-09-11T16:03:04.938Z,21.80
2022-09-11T16:05:42.216Z,21.80
2022-09-11T16:08:10.647Z,21.70
2022-09-11T16:10:39.153Z,21.50
2022-09-11T16:13:07.610Z,21.40
2022-09-11T16:15:36.724Z,21.30
2022-09-11T16:18:09.675Z,21.10
2022-09-11T16:20:43.526Z,21.00
2022-09-11T16:23:12.059Z,20.80
2022-09-11T16:25:42.397Z,20.60
2022-09-11T16:28:10.855Z,20.40
2022-09-11T16:30:45.099Z,20.30
2022-09-11T16:33:16.054Z,20.10
2022-09-11T16:35:46.281Z,19.90
2022-09-11T16:38:14.799Z,19.70
2022-09-11T16:41:02.938Z,19.50
2022-09-11T16:43:31.700Z,19.40
2022-09-11T16:46:00.260Z,19.20
2022-09-11T16:48:29.682Z,19.10
2022-09-11T16:51:01.905Z,19.00
2022-09-11T16:53:55.846Z,19.00
2022-09-11T16:56:26.527Z,18.80
2022-09-11T16:58:55.746Z,18.80
2022-09-11T17:01:27.235Z,18.70
2022-09-11T17:03:58.127Z,18.60
2022-09-11T17:06:32.266Z,18.50
2022-09-11T17:09:04.095Z,18.50
2022-09-11T17:11:34.925Z,18.40
2022-09-11T17:14:04.761Z,18.40
2022-09-11T17:16:35.717Z,18.30
2022-09-11T17:19:04.451Z,18.30
2022-09-11T17:21:35.978Z,18.20
2022-09-11T17:24:06.730Z,18.20
2022-09-11T17:26:37.466Z,18.20
2022-09-11T17:29:07.664Z,18.10
2022-09-11T17:31:36.652Z,18.10
2022-09-11T17:34:05.273Z,18.00
2022-09-11T17:36:57.582Z,18.00
2022-09-11T17:39:26.002Z,17.90
2022-09-11T17:41:54.462Z,17.90
2022-09-11T17:44:24.687Z,17.80
2022-09-11T17:46:53.255Z,17.80
2022-09-11T17:49:21.706Z,17.70
2022-09-11T17:51:50.331Z,17.60
2022-09-11T17:54:20.574Z,17.60
2022-09-11T17:56:49.725Z,17.50
2022-09-11T17:59:18.571Z,17.40
2022-09-11T18:01:47.349Z,17.40
2022-09-11T18:04:18.371Z,17.40
2022-09-11T18:06:47.443Z,17.30
2022-09-11T18:09:19.474Z,17.30
2022-09-11T18:11:54.059Z,17.30
2022-09-11T18:14:23.001Z,17.20
2022-09-11T18:16:51.650Z,17.20
2022-09-11T18:19:21.647Z,17.20
2022-09-11T18:21:53.335Z,17.20
2022-09-11T18:24:22.024Z,17.20
2022-09-11T18:26:59.996Z,17.20
2022-09-11T18:29:30.641Z,17.20
2022-09-11T18:32:00.304Z,17.20
2022-09-11T18:34:31.555Z,17.20
2022-09-11T18:37:00.918Z,17.20
2022-09-11T18:39:31.045Z,17.20
2022-09-11T18:42:01.559Z,17.10
2022-09-11T18:44:30.313Z,17.10
2022-09-11T18:46:59.101Z,17.10
2022-09-11T18:49:27.716Z,17.10
2022-09-11T18:51:56.226Z,17.10
2022-09-11T18:54:25.545Z,17.10
2022-09-11T18:56:54.020Z,17.10
2022-09-11T18:59:24.653Z,17.20
2022-09-11T19:01:53.766Z,17.20
2022-09-11T19:04:23.337Z,17.20
2022-09-11T19:06:51.793Z,17.30
2022-09-11T19:09:20.445Z,17.30
2022-09-11T19:11:49.588Z,17.30
2022-09-11T19:14:18.792Z,17.20
2022-09-11T19:16:49.193Z,17.20
2022-09-11T19:19:17.893Z,17.20
2022-09-11T19:21:46.548Z,17.20
2022-09-11T19:24:15.133Z,17.20
2022-09-11T19:26:45.193Z,17.10
2022-09-11T19:29:15.870Z,17.10
2022-09-11T19:31:44.497Z,17.00
2022-09-11T19:34:14.815Z,17.00
2022-09-11T19:36:43.451Z,17.00
2022-09-11T19:39:12.773Z,17.00
2022-09-11T19:41:41.724Z,16.90
2022-09-11T19:44:14.137Z,17.00
2022-09-11T19:46:46.107Z,16.90
2022-09-11T19:49:16.255Z,16.90
2022-09-11T19:51:45.050Z,16.90
2022-09-11T19:54:14.762Z,16.90
2022-09-11T19:56:44.514Z,16.90
2022-09-11T19:59:14.682Z,16.90
2022-09-11T20:01:43.824Z,16.90
2022-09-11T20:04:13.581Z,16.90
2022-09-11T20:09:30.535Z,16.80
2022-09-11T20:12:00.736Z,16.70
2022-09-11T20:14:30.237Z,16.70
2022-09-11T20:17:00.558Z,16.60
2022-09-11T20:19:29.415Z,16.60
2022-09-11T20:22:00.977Z,16.60
2022-09-11T20:24:54.932Z,16.50
2022-09-11T20:27:23.392Z,16.50
2022-09-11T20:29:51.848Z,16.40
2022-09-11T20:32:20.298Z,16.40
2022-09-11T20:34:48.750Z,16.40
2022-09-11T20:37:18.726Z,16.40
2022-09-11T20:39:47.210Z,16.30
2022-09-11T20:42:15.686Z,16.20
2022-09-11T20:44:45.421Z,16.20
2022-09-11T20:47:14.202Z,16.20
2022-09-11T20:49:42.719Z,16.20
2022-09-11T20:52:13.089Z,16.20
2022-09-11T20:54:43.388Z,16.20
2022-09-11T20:57:12.416Z,16.20
2022-09-11T20:59:40.833Z,16.20
2022-09-11T21:02:10.724Z,16.20
2022-09-11T21:04:40.259Z,16.20
2022-09-11T21:07:09.221Z,16.20
2022-09-11T21:09:38.007Z,16.20
2022-09-11T21:12:08.753Z,16.20
2022-09-11T21:14:37.241Z,16.20
2022-09-11T21:17:05.797Z,16.20
2022-09-11T21:19:34.285Z,16.20
2022-09-11T21:22:02.776Z,16.20
2022-09-11T21:24:31.227Z,16.20
2022-09-11T21:26:59.660Z,16.30
2022-09-11T21:29:29.530Z,16.30
2022-09-11T21:31:57.989Z,16.30
2022-09-11T21:34:26.493Z,16.30
2022-09-11T21:36:54.955Z,16.40
2022-09-11T21:39:23.438Z,16.40
2022-09-11T21:41:51.897Z,16.40
2022-09-11T21:44:20.378Z,16.30
2022-09-11T21:46:50.320Z,16.30
2022-09-11T21:49:18.777Z,16.30
2022-09-11T21:51:47.288Z,16.40
2022-09-11T21:54:37.415Z,16.30
2022-09-11T21:57:06.224Z,16.30
2022-09-11T21:59:34.825Z,16.30
2022-09-11T22:02:04.994Z,16.30
2022-09-11T22:04:34.670Z,16.30
2022-09-11T22:07:03.127Z,16.30
2022-09-11T22:09:31.712Z,16.30
2022-09-11T22:12:00.226Z,16.30
2022-09-11T22:14:28.763Z,16.30
2022-09-11T22:16:57.248Z,16.30
2022-09-11T22:19:27.250Z,16.20
2022-09-11T22:21:55.846Z,16.20
2022-09-11T22:24:24.376Z,16.10
2022-09-11T22:26:53.002Z,16.10
2022-09-11T22:29:21.477Z,16.10
2022-09-11T22:31:49.989Z,16.00
2022-09-11T22:34:18.557Z,16.00
2022-09-11T22:36:48.386Z,16.00
2022-09-11T22:39:17.012Z,16.00
2022-09-11T22:41:45.484Z,16.00
2022-09-11T22:44:14.120Z,16.00
2022-09-11T22:46:46.950Z,16.00
2022-09-11T22:49:17.631Z,16.00
2022-09-11T22:52:12.611Z,15.90
2022-09-11T22:54:41.120Z,15.90
2022-09-11T22:57:09.627Z,15.90
2022-09-11T22:59:38.181Z,15.80
2022-09-11T23:02:06.816Z,15.80
2022-09-11T23:04:35.463Z,15.80
2022-09-11T23:07:30.503Z,15.80
2022-09-11T23:09:59.053Z,15.80
2022-09-11T23:12:27.498Z,15.80
2022-09-11T23:14:57.093Z,15.80
2022-09-11T23:17:26.767Z,15.80
2022-09-11T23:19:55.248Z,15.70
2022-09-11T23:22:23.888Z,15.70
2022-09-11T23:24:53.743Z,15.70
2022-09-11T23:27:22.630Z,15.60
2022-09-11T23:29:51.061Z,15.60
2022-09-11T23:32:19.681Z,15.50
2022-09-11T23:34:48.256Z,15.40
2022-09-11T23:37:16.777Z,15.40
2022-09-11T23:39:45.380Z,15.30
2022-09-11T23:42:15.341Z,15.30
2022-09-11T23:44:43.838Z,15.20
2022-09-11T23:47:12.316Z,15.20
2022-09-11T23:50:16.997Z,15.10
2022-09-11T23:52:45.505Z,15.10
2022-09-11T23:55:14.662Z,15.00
2022-09-11T23:57:44.640Z,15.00
